sensor_id;sensor_type;location;lat;lon;timestamp;temperature;humidity
23671;DHT22;12012;51.998;7.614;2023-03-01T00:00:38;-0.60;1.00
23671;DHT22;12012;51.998;7.614;2023-03-01T00:03:03;-0.60;1.00
23671;DHT22;12012;51.998;7.614;2023-03-01T00:05:29;-0.60;1.00
23671;DHT22;12012;51.998;7.614;2023-03-01T00:07:54;-0.70;1.00
23671;DHT22;12012;51.998;7.614;2023-03-01T00:10:20;-0.70;1.00
23671;DHT22;12012;51.998;7.614;2023-03-01T00:12:45;-0.70;1.00
23671;DHT22;12012;51.998;7.614;2023-03-01T00:15:11;-0.70;1.00
23671;DHT22;12012;51.998;7.614;2023-03-01T00:17:37;-0.70;2.10
23671;DHT22;12012;51.998;7.614;2023-03-01T00:20:03;-0.70;3.80
23671;DHT22;12012;51.998;7.614;2023-03-01T00:22:29;-0.80;5.20
23671;DHT22;12012;51.998;7.614;2023-03-01T00:24:54;-0.80;6.70
23671;DHT22;12012;51.998;7.614;2023-03-01T00:27:20;-0.80;8.70
23671;DHT22;12012;51.998;7.614;2023-03-01T00:29:45;-0.90;11.10
23671;DHT22;12012;51.998;7.614;2023-03-01T00:32:11;-0.90;12.30
23671;DHT22;12012;51.998;7.614;2023-03-01T00:34:36;-0.90;14.60
23671;DHT22;12012;51.998;7.614;2023-03-01T00:37:02;-0.90;17.80
23671;DHT22;12012;51.998;7.614;2023-03-01T00:39:31;-0.90;22.60
23671;DHT22;12012;51.998;7.614;2023-03-01T00:41:57;-0.90;25.50
23671;DHT22;12012;51.998;7.614;2023-03-01T00:44:23;-0.90;28.30
23671;DHT22;12012;51.998;7.614;2023-03-01T00:46:48;-0.90;31.60
23671;DHT22;12012;51.998;7.614;2023-03-01T00:49:14;-0.90;36.20
23671;DHT22;12012;51.998;7.614;2023-03-01T00:51:40;-1.00;39.30
23671;DHT22;12012;51.998;7.614;2023-03-01T00:54:08;-1.00;43.60
23671;DHT22;12012;51.998;7.614;2023-03-01T00:56:34;-1.00;47.20
23671;DHT22;12012;51.998;7.614;2023-03-01T00:59:00;-1.10;52.10
23671;DHT22;12012;51.998;7.614;2023-03-01T01:01:28;-1.10;55.00
23671;DHT22;12012;51.998;7.614;2023-03-01T01:03:59;-1.10;56.60
23671;DHT22;12012;51.998;7.614;2023-03-01T01:06:27;-1.20;58.20
23671;DHT22;12012;51.998;7.614;2023-03-01T01:08:54;-1.20;59.90
23671;DHT22;12012;51.998;7.614;2023-03-01T01:11:22;-1.30;68.10
23671;DHT22;12012;51.998;7.614;2023-03-01T01:13:48;-1.30;75.60
23671;DHT22;12012;51.998;7.614;2023-03-01T01:16:15;-1.30;86.30
23671;DHT22;12012;51.998;7.614;2023-03-01T01:18:42;-1.30;92.20
23671;DHT22;12012;51.998;7.614;2023-03-01T01:21:11;-1.30;96.50
23671;DHT22;12012;51.998;7.614;2023-03-01T01:23:37;-1.30;99.90
23671;DHT22;12012;51.998;7.614;2023-03-01T01:26:05;-1.30;99.90
23671;DHT22;12012;51.998;7.614;2023-03-01T01:28:31;-1.30;99.90
23671;DHT22;12012;51.998;7.614;2023-03-01T01:30:57;-1.30;99.90
23671;DHT22;12012;51.998;7.614;2023-03-01T01:33:22;-1.30;99.90
23671;DHT22;12012;51.998;7.614;2023-03-01T01:35:48;-1.30;99.90
23671;DHT22;12012;51.998;7.614;2023-03-01T01:38:14;-1.40;99.90
23671;DHT22;12012;51.998;7.614;2023-03-01T01:40:46;-1.40;99.90
23671;DHT22;12012;51.998;7.614;2023-03-01T01:43:19;-1.30;99.90
23671;DHT22;12012;51.998;7.614;2023-03-01T01:45:45;-1.40;99.90
23671;DHT22;12012;51.998;7.614;2023-03-01T01:48:13;-1.40;99.90
23671;DHT22;12012;51.998;7.614;2023-03-01T01:50:41;-1.40;99.90
23671;DHT22;12012;51.998;7.614;2023-03-01T01:53:13;-1.40;99.90
23671;DHT22;12012;51.998;7.614;2023-03-01T01:55:44;-1.50;99.90
23671;DHT22;12012;51.998;7.614;2023-03-01T01:58:13;-1.50;99.90
23671;DHT22;12012;51.998;7.614;2023-03-01T02:00:40;-1.50;99.90
23671;DHT22;12012;51.998;7.614;2023-03-01T02:03:10;-1.50;99.90
23671;DHT22;12012;51.998;7.614;2023-03-01T02:05:43;-1.50;99.90
23671;DHT22;12012;51.998;7.614;2023-03-01T02:08:13;-1.50;99.90
23671;DHT22;12012;51.998;7.614;2023-03-01T02:10:39;-1.50;99.90
23671;DHT22;12012;51.998;7.614;2023-03-01T02:13:06;-1.50;99.90
23671;DHT22;12012;51.998;7.614;2023-03-01T02:15:36;-1.50;99.90
23671;DHT22;12012;51.998;7.614;2023-03-01T02:18:03;-1.50;99.90
23671;DHT22;12012;51.998;7.614;2023-03-01T02:20:48;-1.50;99.90
23671;DHT22;12012;51.998;7.614;2023-03-01T02:23:16;-1.50;99.90
23671;DHT22;12012;51.998;7.614;2023-03-01T02:30:47;-1.60;99.90
23671;DHT22;12012;51.998;7.614;2023-03-01T02:33:33;-1.60;99.90
23671;DHT22;12012;51.998;7.614;2023-03-01T02:36:03;-1.70;99.90
23671;DHT22;12012;51.998;7.614;2023-03-01T02:38:31;-1.70;99.90
23671;DHT22;12012;51.998;7.614;2023-03-01T02:40:57;-1.70;99.90
23671;DHT22;12012;51.998;7.614;2023-03-01T02:43:27;-1.80;99.90
23671;DHT22;12012;51.998;7.614;2023-03-01T02:45:58;-1.70;99.90
23671;DHT22;12012;51.998;7.614;2023-03-01T02:48:23;-1.70;99.90
23671;DHT22;12012;51.998;7.614;2023-03-01T02:51:03;-1.80;99.90
23671;DHT22;12012;51.998;7.614;2023-03-01T02:53:45;-1.80;99.90
23671;DHT22;12012;51.998;7.614;2023-03-01T02:56:14;-1.90;99.90
23671;DHT22;12012;51.998;7.614;2023-03-01T02:58:41;-1.90;99.90
23671;DHT22;12012;51.998;7.614;2023-03-01T03:01:12;-2.00;99.90
23671;DHT22;12012;51.998;7.614;2023-03-01T03:03:41;-2.00;99.90
23671;DHT22;12012;51.998;7.614;2023-03-01T03:06:06;-2.10;99.90
23671;DHT22;12012;51.998;7.614;2023-03-01T03:08:32;-2.10;99.90
23671;DHT22;12012;51.998;7.614;2023-03-01T03:10:57;-2.10;99.90
23671;DHT22;12012;51.998;7.614;2023-03-01T03:13:23;-2.10;99.90
23671;DHT22;12012;51.998;7.614;2023-03-01T03:15:54;-2.10;99.90
23671;DHT22;12012;51.998;7.614;2023-03-01T03:18:21;-2.10;99.90
23671;DHT22;12012;51.998;7.614;2023-03-01T03:20:47;-2.10;99.90
23671;DHT22;12012;51.998;7.614;2023-03-01T03:23:13;-2.20;99.90
23671;DHT22;12012;51.998;7.614;2023-03-01T03:25:38;-2.20;99.90
23671;DHT22;12012;51.998;7.614;2023-03-01T03:28:06;-2.20;99.90
23671;DHT22;12012;51.998;7.614;2023-03-01T03:30:36;-2.20;99.90
23671;DHT22;12012;51.998;7.614;2023-03-01T03:33:04;-2.20;99.90
23671;DHT22;12012;51.998;7.614;2023-03-01T03:35:32;-2.20;99.90
23671;DHT22;12012;51.998;7.614;2023-03-01T03:38:01;-2.20;99.90
23671;DHT22;12012;51.998;7.614;2023-03-01T03:40:32;-2.20;99.90
23671;DHT22;12012;51.998;7.614;2023-03-01T03:42:58;-2.30;99.90
23671;DHT22;12012;51.998;7.614;2023-03-01T03:45:24;-2.30;99.90
23671;DHT22;12012;51.998;7.614;2023-03-01T03:47:49;-2.30;99.90
23671;DHT22;12012;51.998;7.614;2023-03-01T03:50:17;-2.30;99.90
23671;DHT22;12012;51.998;7.614;2023-03-01T03:52:43;-2.30;99.90
23671;DHT22;12012;51.998;7.614;2023-03-01T03:55:10;-2.30;99.90
23671;DHT22;12012;51.998;7.614;2023-03-01T03:57:41;-2.30;99.90
23671;DHT22;12012;51.998;7.614;2023-03-01T04:00:10;-2.40;99.90
23671;DHT22;12012;51.998;7.614;2023-03-01T04:02:41;-2.40;99.90
23671;DHT22;12012;51.998;7.614;2023-03-01T04:05:08;-2.40;1.00
23671;DHT22;12012;51.998;7.614;2023-03-01T04:07:35;-2.40;1.00
23671;DHT22;12012;51.998;7.614;2023-03-01T04:10:03;-2.40;99.90
23671;DHT22;12012;51.998;7.614;2023-03-01T04:12:28;-2.40;99.90
23671;DHT22;12012;51.998;7.614;2023-03-01T04:14:54;-2.40;99.90
23671;DHT22;12012;51.998;7.614;2023-03-01T04:17:19;-2.40;99.90
23671;DHT22;12012;51.998;7.614;2023-03-01T04:19:45;-2.40;99.90
23671;DHT22;12012;51.998;7.614;2023-03-01T04:22:14;-2.40;99.90
23671;DHT22;12012;51.998;7.614;2023-03-01T04:24:42;-2.50;99.90
23671;DHT22;12012;51.998;7.614;2023-03-01T04:27:08;-2.40;99.90
23671;DHT22;12012;51.998;7.614;2023-03-01T04:29:34;-2.40;99.90
23671;DHT22;12012;51.998;7.614;2023-03-01T04:32:00;-2.40;99.90
23671;DHT22;12012;51.998;7.614;2023-03-01T04:34:25;-2.40;99.90
23671;DHT22;12012;51.998;7.614;2023-03-01T04:36:52;-2.50;99.90
23671;DHT22;12012;51.998;7.614;2023-03-01T04:39:18;-2.50;99.90
23671;DHT22;12012;51.998;7.614;2023-03-01T04:41:43;-2.50;99.90
23671;DHT22;12012;51.998;7.614;2023-03-01T04:44:09;-2.60;99.90
23671;DHT22;12012;51.998;7.614;2023-03-01T04:46:35;-2.60;1.00
23671;DHT22;12012;51.998;7.614;2023-03-01T04:49:02;-2.60;1.00
23671;DHT22;12012;51.998;7.614;2023-03-01T04:51:28;-2.60;1.00
23671;DHT22;12012;51.998;7.614;2023-03-01T04:53:54;-2.60;1.00
23671;DHT22;12012;51.998;7.614;2023-03-01T04:56:19;-2.60;1.00
23671;DHT22;12012;51.998;7.614;2023-03-01T04:58:48;-2.60;1.00
23671;DHT22;12012;51.998;7.614;2023-03-01T05:01:19;-2.60;1.00
23671;DHT22;12012;51.998;7.614;2023-03-01T05:03:47;-2.60;1.00
23671;DHT22;12012;51.998;7.614;2023-03-01T05:06:14;-2.60;1.00
23671;DHT22;12012;51.998;7.614;2023-03-01T05:08:41;-2.60;1.00
23671;DHT22;12012;51.998;7.614;2023-03-01T05:11:07;-2.60;1.00
23671;DHT22;12012;51.998;7.614;2023-03-01T05:13:34;-2.60;1.00
23671;DHT22;12012;51.998;7.614;2023-03-01T05:16:01;-2.70;1.00
23671;DHT22;12012;51.998;7.614;2023-03-01T05:18:28;-2.70;1.00
23671;DHT22;12012;51.998;7.614;2023-03-01T05:20:55;-2.70;1.00
23671;DHT22;12012;51.998;7.614;2023-03-01T05:23:24;-2.70;1.00
23671;DHT22;12012;51.998;7.614;2023-03-01T05:25:50;-2.70;1.00
23671;DHT22;12012;51.998;7.614;2023-03-01T05:28:19;-2.70;1.00
23671;DHT22;12012;51.998;7.614;2023-03-01T05:30:46;-2.80;99.90
23671;DHT22;12012;51.998;7.614;2023-03-01T05:33:12;-2.80;99.90
23671;DHT22;12012;51.998;7.614;2023-03-01T05:35:41;-2.80;99.90
23671;DHT22;12012;51.998;7.614;2023-03-01T05:38:08;-2.90;99.90
23671;DHT22;12012;51.998;7.614;2023-03-01T05:40:34;-3.00;99.90
23671;DHT22;12012;51.998;7.614;2023-03-01T05:43:00;-3.00;99.90
23671;DHT22;12012;51.998;7.614;2023-03-01T05:45:27;-3.00;99.90
23671;DHT22;12012;51.998;7.614;2023-03-01T05:47:54;-3.10;99.90
23671;DHT22;12012;51.998;7.614;2023-03-01T05:50:26;-3.10;1.00
23671;DHT22;12012;51.998;7.614;2023-03-01T05:55:29;-3.10;1.00
23671;DHT22;12012;51.998;7.614;2023-03-01T05:57:55;-3.10;99.90
23671;DHT22;12012;51.998;7.614;2023-03-01T06:00:21;-3.20;99.90
23671;DHT22;12012;51.998;7.614;2023-03-01T06:02:49;-3.10;1.00
23671;DHT22;12012;51.998;7.614;2023-03-01T06:05:17;-3.10;1.00
23671;DHT22;12012;51.998;7.614;2023-03-01T06:07:43;-3.10;1.00
23671;DHT22;12012;51.998;7.614;2023-03-01T06:10:09;-3.10;1.00
23671;DHT22;12012;51.998;7.614;2023-03-01T06:15:01;-3.20;1.00
23671;DHT22;12012;51.998;7.614;2023-03-01T06:17:32;-3.20;1.00
23671;DHT22;12012;51.998;7.614;2023-03-01T06:20:06;-3.20;99.90
23671;DHT22;12012;51.998;7.614;2023-03-01T06:22:32;-3.30;99.90
23671;DHT22;12012;51.998;7.614;2023-03-01T06:24:58;-3.30;99.90
23671;DHT22;12012;51.998;7.614;2023-03-01T06:27:23;-3.30;1.00
23671;DHT22;12012;51.998;7.614;2023-03-01T06:29:49;-3.20;1.00
23671;DHT22;12012;51.998;7.614;2023-03-01T06:32:14;-3.20;1.00
23671;DHT22;12012;51.998;7.614;2023-03-01T06:34:40;-3.20;1.00
23671;DHT22;12012;51.998;7.614;2023-03-01T06:37:07;-3.20;1.00
23671;DHT22;12012;51.998;7.614;2023-03-01T06:39:33;-3.20;1.00
23671;DHT22;12012;51.998;7.614;2023-03-01T06:41:59;-3.30;99.90
23671;DHT22;12012;51.998;7.614;2023-03-01T06:44:25;-3.20;99.90
23671;DHT22;12012;51.998;7.614;2023-03-01T06:46:51;-3.20;1.00
23671;DHT22;12012;51.998;7.614;2023-03-01T06:49:17;-3.20;1.00
23671;DHT22;12012;51.998;7.614;2023-03-01T06:51:43;-3.10;1.00
23671;DHT22;12012;51.998;7.614;2023-03-01T06:54:09;-3.10;1.00
23671;DHT22;12012;51.998;7.614;2023-03-01T06:56:35;-3.00;1.00
23671;DHT22;12012;51.998;7.614;2023-03-01T06:59:01;-3.00;1.00
23671;DHT22;12012;51.998;7.614;2023-03-01T07:01:28;-3.00;1.00
23671;DHT22;12012;51.998;7.614;2023-03-01T07:03:54;-2.90;1.00
23671;DHT22;12012;51.998;7.614;2023-03-01T07:06:19;-2.80;1.00
23671;DHT22;12012;51.998;7.614;2023-03-01T07:08:45;-2.80;1.00
23671;DHT22;12012;51.998;7.614;2023-03-01T07:11:10;-2.70;1.00
23671;DHT22;12012;51.998;7.614;2023-03-01T07:13:36;-2.60;1.00
23671;DHT22;12012;51.998;7.614;2023-03-01T07:16:01;-2.60;1.00
23671;DHT22;12012;51.998;7.614;2023-03-01T07:18:27;-2.50;1.00
23671;DHT22;12012;51.998;7.614;2023-03-01T07:20:52;-2.40;1.00
23671;DHT22;12012;51.998;7.614;2023-03-01T07:23:18;-2.20;1.00
23671;DHT22;12012;51.998;7.614;2023-03-01T07:25:44;-2.00;1.00
23671;DHT22;12012;51.998;7.614;2023-03-01T07:28:09;-1.80;1.00
23671;DHT22;12012;51.998;7.614;2023-03-01T07:30:35;-1.70;1.00
23671;DHT22;12012;51.998;7.614;2023-03-01T07:33:00;-1.50;1.00
23671;DHT22;12012;51.998;7.614;2023-03-01T07:35:26;-1.30;1.00
23671;DHT22;12012;51.998;7.614;2023-03-01T07:37:53;-1.00;1.00
23671;DHT22;12012;51.998;7.614;2023-03-01T07:40:18;-0.70;1.00
23671;DHT22;12012;51.998;7.614;2023-03-01T07:42:44;-0.50;1.00
23671;DHT22;12012;51.998;7.614;2023-03-01T07:45:10;-0.20;1.00
23671;DHT22;12012;51.998;7.614;2023-03-01T07:47:36;0.10;1.00
23671;DHT22;12012;51.998;7.614;2023-03-01T07:50:03;0.40;1.00
23671;DHT22;12012;51.998;7.614;2023-03-01T07:52:29;0.60;1.00
23671;DHT22;12012;51.998;7.614;2023-03-01T07:54:56;0.90;1.00
23671;DHT22;12012;51.998;7.614;2023-03-01T07:57:21;1.20;1.00
23671;DHT22;12012;51.998;7.614;2023-03-01T07:59:47;1.40;1.00
23671;DHT22;12012;51.998;7.614;2023-03-01T08:02:13;1.70;1.00
23671;DHT22;12012;51.998;7.614;2023-03-01T08:04:40;1.90;1.00
23671;DHT22;12012;51.998;7.614;2023-03-01T08:07:06;2.20;1.00
23671;DHT22;12012;51.998;7.614;2023-03-01T08:09:34;2.50;1.00
23671;DHT22;12012;51.998;7.614;2023-03-01T08:12:00;2.70;1.00
23671;DHT22;12012;51.998;7.614;2023-03-01T08:14:25;3.00;99.90
23671;DHT22;12012;51.998;7.614;2023-03-01T08:16:51;3.20;99.90
23671;DHT22;12012;51.998;7.614;2023-03-01T08:19:17;3.50;99.90
23671;DHT22;12012;51.998;7.614;2023-03-01T08:21:42;3.70;99.90
23671;DHT22;12012;51.998;7.614;2023-03-01T08:24:08;3.90;99.90
23671;DHT22;12012;51.998;7.614;2023-03-01T08:26:36;4.20;99.90
23671;DHT22;12012;51.998;7.614;2023-03-01T08:29:02;4.40;99.90
23671;DHT22;12012;51.998;7.614;2023-03-01T08:31:31;4.60;99.90
23671;DHT22;12012;51.998;7.614;2023-03-01T08:33:59;4.90;99.90
23671;DHT22;12012;51.998;7.614;2023-03-01T08:36:31;5.20;99.90
23671;DHT22;12012;51.998;7.614;2023-03-01T08:38:57;5.30;99.90
23671;DHT22;12012;51.998;7.614;2023-03-01T08:41:23;5.50;99.90
23671;DHT22;12012;51.998;7.614;2023-03-01T08:43:49;5.80;99.90
23671;DHT22;12012;51.998;7.614;2023-03-01T08:46:15;6.00;99.90
23671;DHT22;12012;51.998;7.614;2023-03-01T08:48:40;6.10;99.90
23671;DHT22;12012;51.998;7.614;2023-03-01T08:51:17;6.40;99.90
23671;DHT22;12012;51.998;7.614;2023-03-01T08:53:43;6.60;99.90
23671;DHT22;12012;51.998;7.614;2023-03-01T08:56:10;6.80;99.90
23671;DHT22;12012;51.998;7.614;2023-03-01T08:58:36;7.10;99.90
23671;DHT22;12012;51.998;7.614;2023-03-01T09:01:07;7.30;99.90
23671;DHT22;12012;51.998;7.614;2023-03-01T09:03:33;7.50;99.90
23671;DHT22;12012;51.998;7.614;2023-03-01T09:06:03;7.70;96.30
23671;DHT22;12012;51.998;7.614;2023-03-01T09:08:29;7.90;92.80
23671;DHT22;12012;51.998;7.614;2023-03-01T09:10:55;8.20;96.30
23671;DHT22;12012;51.998;7.614;2023-03-01T09:13:21;8.30;73.50
23671;DHT22;12012;51.998;7.614;2023-03-01T09:15:50;8.50;63.20
23671;DHT22;12012;51.998;7.614;2023-03-01T09:18:15;8.80;54.70
23671;DHT22;12012;51.998;7.614;2023-03-01T09:20:41;9.00;49.30
23671;DHT22;12012;51.998;7.614;2023-03-01T09:23:07;9.20;44.00
23671;DHT22;12012;51.998;7.614;2023-03-01T09:25:34;9.40;36.80
23671;DHT22;12012;51.998;7.614;2023-03-01T09:28:00;9.60;30.20
23671;DHT22;12012;51.998;7.614;2023-03-01T09:30:26;9.90;39.50
23671;DHT22;12012;51.998;7.614;2023-03-01T09:32:52;10.10;22.40
23671;DHT22;12012;51.998;7.614;2023-03-01T09:35:17;10.30;19.20
23671;DHT22;12012;51.998;7.614;2023-03-01T09:37:45;10.40;15.40
23671;DHT22;12012;51.998;7.614;2023-03-01T09:40:19;10.60;12.10
23671;DHT22;12012;51.998;7.614;2023-03-01T09:45:27;10.90;5.80
23671;DHT22;12012;51.998;7.614;2023-03-01T09:47:55;11.10;2.70
23671;DHT22;12012;51.998;7.614;2023-03-01T09:50:22;11.10;1.00
23671;DHT22;12012;51.998;7.614;2023-03-01T09:53:01;11.30;7.50
23671;DHT22;12012;51.998;7.614;2023-03-01T10:00:48;11.20;1.00
23671;DHT22;12012;51.998;7.614;2023-03-01T10:03:27;11.30;1.00
23671;DHT22;12012;51.998;7.614;2023-03-01T10:06:04;11.30;1.00
23671;DHT22;12012;51.998;7.614;2023-03-01T10:11:02;11.40;1.00
23671;DHT22;12012;51.998;7.614;2023-03-01T10:16:17;11.50;1.00
23671;DHT22;12012;51.998;7.614;2023-03-01T10:18:48;11.80;1.00
23671;DHT22;12012;51.998;7.614;2023-03-01T10:21:19;12.10;1.00
23671;DHT22;12012;51.998;7.614;2023-03-01T10:23:46;12.30;1.00
23671;DHT22;12012;51.998;7.614;2023-03-01T10:31:21;13.00;1.00
23671;DHT22;12012;51.998;7.614;2023-03-01T10:33:48;13.20;1.00
23671;DHT22;12012;51.998;7.614;2023-03-01T10:36:17;13.30;1.00
23671;DHT22;12012;51.998;7.614;2023-03-01T10:38:56;13.40;1.00
23671;DHT22;12012;51.998;7.614;2023-03-01T10:41:24;13.50;1.00
23671;DHT22;12012;51.998;7.614;2023-03-01T10:43:56;13.70;1.00
23671;DHT22;12012;51.998;7.614;2023-03-01T10:46:33;13.90;1.00
23671;DHT22;12012;51.998;7.614;2023-03-01T10:49:18;14.10;1.00
23671;DHT22;12012;51.998;7.614;2023-03-01T10:51:46;14.40;1.00
23671;DHT22;12012;51.998;7.614;2023-03-01T10:54:31;14.60;1.00
23671;DHT22;12012;51.998;7.614;2023-03-01T10:57:00;14.80;1.00
23671;DHT22;12012;51.998;7.614;2023-03-01T10:59:37;15.00;1.00
23671;DHT22;12012;51.998;7.614;2023-03-01T11:02:21;15.20;1.00
23671;DHT22;12012;51.998;7.614;2023-03-01T11:07:26;15.60;1.00
23671;DHT22;12012;51.998;7.614;2023-03-01T11:09:52;15.80;1.00
23671;DHT22;12012;51.998;7.614;2023-03-01T11:12:18;15.90;1.00
23671;DHT22;12012;51.998;7.614;2023-03-01T11:14:49;16.00;1.00
23671;DHT22;12012;51.998;7.614;2023-03-01T11:17:17;16.30;1.00
23671;DHT22;12012;51.998;7.614;2023-03-01T11:25:34;17.30;1.00
23671;DHT22;12012;51.998;7.614;2023-03-01T11:28:03;18.00;1.00
23671;DHT22;12012;51.998;7.614;2023-03-01T11:30:30;19.50;1.00
23671;DHT22;12012;51.998;7.614;2023-03-01T11:33:19;21.50;1.00
23671;DHT22;12012;51.998;7.614;2023-03-01T11:38:35;23.80;1.00
23671;DHT22;12012;51.998;7.614;2023-03-01T11:41:14;24.10;1.00
23671;DHT22;12012;51.998;7.614;2023-03-01T11:44:00;24.40;1.00
23671;DHT22;12012;51.998;7.614;2023-03-01T11:54:17;25.20;1.00
23671;DHT22;12012;51.998;7.614;2023-03-01T11:56:48;25.30;1.00
23671;DHT22;12012;51.998;7.614;2023-03-01T12:02:00;26.10;1.00
23671;DHT22;12012;51.998;7.614;2023-03-01T12:07:21;27.00;1.00
23671;DHT22;12012;51.998;7.614;2023-03-01T12:13:03;27.10;1.00
23671;DHT22;12012;51.998;7.614;2023-03-01T12:21:42;27.00;1.00
23671;DHT22;12012;51.998;7.614;2023-03-01T12:24:35;27.20;1.00
23671;DHT22;12012;51.998;7.614;2023-03-01T12:27:20;27.50;1.00
23671;DHT22;12012;51.998;7.614;2023-03-01T12:38:03;27.80;1.00
23671;DHT22;12012;51.998;7.614;2023-03-01T12:49:14;28.70;1.00
23671;DHT22;12012;51.998;7.614;2023-03-01T12:51:54;28.80;1.00
23671;DHT22;12012;51.998;7.614;2023-03-01T12:54:33;28.70;1.00
23671;DHT22;12012;51.998;7.614;2023-03-01T12:57:06;28.60;1.00
23671;DHT22;12012;51.998;7.614;2023-03-01T12:59:56;28.50;1.00
23671;DHT22;12012;51.998;7.614;2023-03-01T13:02:38;28.40;1.00
23671;DHT22;12012;51.998;7.614;2023-03-01T13:08:18;28.50;1.00
23671;DHT22;12012;51.998;7.614;2023-03-01T13:10:58;28.40;1.00
23671;DHT22;12012;51.998;7.614;2023-03-01T13:13:27;28.10;1.00
23671;DHT22;12012;51.998;7.614;2023-03-01T13:15:54;27.40;1.00
23671;DHT22;12012;51.998;7.614;2023-03-01T13:20:49;24.60;1.00
23671;DHT22;12012;51.998;7.614;2023-03-01T13:26:17;23.00;1.00
23671;DHT22;12012;51.998;7.614;2023-03-01T13:28:56;22.30;1.00
23671;DHT22;12012;51.998;7.614;2023-03-01T13:33:52;21.50;1.00
23671;DHT22;12012;51.998;7.614;2023-03-01T13:38:56;21.20;1.00
23671;DHT22;12012;51.998;7.614;2023-03-01T13:46:44;22.90;1.00
23671;DHT22;12012;51.998;7.614;2023-03-01T13:49:14;23.60;1.00
23671;DHT22;12012;51.998;7.614;2023-03-01T13:51:41;24.00;1.00
23671;DHT22;12012;51.998;7.614;2023-03-01T13:54:12;24.40;1.00
23671;DHT22;12012;51.998;7.614;2023-03-01T13:56:39;24.80;1.00
23671;DHT22;12012;51.998;7.614;2023-03-01T13:59:13;25.00;1.00
23671;DHT22;12012;51.998;7.614;2023-03-01T14:01:40;25.10;1.00
23671;DHT22;12012;51.998;7.614;2023-03-01T14:04:23;25.00;1.00
23671;DHT22;12012;51.998;7.614;2023-03-01T14:06:51;25.10;1.00
23671;DHT22;12012;51.998;7.614;2023-03-01T14:09:22;25.10;1.00
23671;DHT22;12012;51.998;7.614;2023-03-01T14:14:34;24.20;1.00
23671;DHT22;12012;51.998;7.614;2023-03-01T14:17:17;24.40;1.00
23671;DHT22;12012;51.998;7.614;2023-03-01T14:19:48;24.50;1.00
23671;DHT22;12012;51.998;7.614;2023-03-01T14:24:55;24.30;1.00
23671;DHT22;12012;51.998;7.614;2023-03-01T14:27:21;24.30;1.00
23671;DHT22;12012;51.998;7.614;2023-03-01T14:29:56;24.30;1.00
23671;DHT22;12012;51.998;7.614;2023-03-01T14:32:26;24.40;1.00
23671;DHT22;12012;51.998;7.614;2023-03-01T14:34:52;24.50;1.00
23671;DHT22;12012;51.998;7.614;2023-03-01T14:37:29;24.60;1.00
23671;DHT22;12012;51.998;7.614;2023-03-01T14:39:57;24.60;1.00
23671;DHT22;12012;51.998;7.614;2023-03-01T14:42:25;24.40;1.00
23671;DHT22;12012;51.998;7.614;2023-03-01T14:44:54;24.10;1.00
23671;DHT22;12012;51.998;7.614;2023-03-01T14:47:33;23.30;1.00
23671;DHT22;12012;51.998;7.614;2023-03-01T14:50:02;22.40;1.00
23671;DHT22;12012;51.998;7.614;2023-03-01T14:52:42;21.60;1.00
23671;DHT22;12012;51.998;7.614;2023-03-01T14:55:26;20.90;1.00
23671;DHT22;12012;51.998;7.614;2023-03-01T14:57:52;20.20;1.00
23671;DHT22;12012;51.998;7.614;2023-03-01T15:00:30;19.20;1.00
23671;DHT22;12012;51.998;7.614;2023-03-01T15:03:00;18.20;1.00
23671;DHT22;12012;51.998;7.614;2023-03-01T15:05:30;17.20;1.00
23671;DHT22;12012;51.998;7.614;2023-03-01T15:08:01;16.40;1.00
23671;DHT22;12012;51.998;7.614;2023-03-01T15:10:32;15.60;1.00
23671;DHT22;12012;51.998;7.614;2023-03-01T15:13:21;14.90;1.00
23671;DHT22;12012;51.998;7.614;2023-03-01T15:15:50;14.20;1.00
23671;DHT22;12012;51.998;7.614;2023-03-01T15:18:43;13.70;1.00
23671;DHT22;12012;51.998;7.614;2023-03-01T15:21:17;13.30;1.00
23671;DHT22;12012;51.998;7.614;2023-03-01T15:24:06;12.90;1.00
23671;DHT22;12012;51.998;7.614;2023-03-01T15:26:42;12.60;1.00
23671;DHT22;12012;51.998;7.614;2023-03-01T15:29:18;12.30;1.00
23671;DHT22;12012;51.998;7.614;2023-03-01T15:32:02;12.00;1.00
23671;DHT22;12012;51.998;7.614;2023-03-01T15:34:36;11.80;1.00
23671;DHT22;12012;51.998;7.614;2023-03-01T15:37:04;11.60;1.00
23671;DHT22;12012;51.998;7.614;2023-03-01T15:39:35;11.40;1.00
23671;DHT22;12012;51.998;7.614;2023-03-01T15:42:10;11.20;1.00
23671;DHT22;12012;51.998;7.614;2023-03-01T15:44:39;11.00;1.00
23671;DHT22;12012;51.998;7.614;2023-03-01T15:47:30;10.80;1.00
23671;DHT22;12012;51.998;7.614;2023-03-01T15:49:58;10.60;1.00
23671;DHT22;12012;51.998;7.614;2023-03-01T15:52:26;10.40;1.00
23671;DHT22;12012;51.998;7.614;2023-03-01T15:55:01;10.20;1.00
23671;DHT22;12012;51.998;7.614;2023-03-01T15:57:27;10.00;1.00
23671;DHT22;12012;51.998;7.614;2023-03-01T15:59:53;10.00;1.00
23671;DHT22;12012;51.998;7.614;2023-03-01T16:02:18;9.90;1.00
23671;DHT22;12012;51.998;7.614;2023-03-01T16:04:47;9.80;1.00
23671;DHT22;12012;51.998;7.614;2023-03-01T16:07:14;9.80;1.00
23671;DHT22;12012;51.998;7.614;2023-03-01T16:09:39;9.70;1.00
23671;DHT22;12012;51.998;7.614;2023-03-01T16:12:06;9.60;1.00
23671;DHT22;12012;51.998;7.614;2023-03-01T16:14:34;9.50;1.00
23671;DHT22;12012;51.998;7.614;2023-03-01T16:16:59;9.30;1.00
23671;DHT22;12012;51.998;7.614;2023-03-01T16:19:25;9.10;1.00
23671;DHT22;12012;51.998;7.614;2023-03-01T16:21:50;9.00;1.00
23671;DHT22;12012;51.998;7.614;2023-03-01T16:24:16;8.90;1.00
23671;DHT22;12012;51.998;7.614;2023-03-01T16:26:42;8.70;1.00
23671;DHT22;12012;51.998;7.614;2023-03-01T16:29:08;8.60;1.00
23671;DHT22;12012;51.998;7.614;2023-03-01T16:31:33;8.40;1.00
23671;DHT22;12012;51.998;7.614;2023-03-01T16:33:59;8.20;1.00
23671;DHT22;12012;51.998;7.614;2023-03-01T16:36:26;8.10;1.00
23671;DHT22;12012;51.998;7.614;2023-03-01T16:38:54;8.00;1.00
23671;DHT22;12012;51.998;7.614;2023-03-01T16:41:22;7.80;1.00
23671;DHT22;12012;51.998;7.614;2023-03-01T16:43:49;7.70;1.00
23671;DHT22;12012;51.998;7.614;2023-03-01T16:46:20;7.50;1.00
23671;DHT22;12012;51.998;7.614;2023-03-01T16:48:47;7.30;1.00
23671;DHT22;12012;51.998;7.614;2023-03-01T16:51:12;7.20;1.00
23671;DHT22;12012;51.998;7.614;2023-03-01T16:53:38;7.10;1.00
23671;DHT22;12012;51.998;7.614;2023-03-01T16:56:06;6.90;1.00
23671;DHT22;12012;51.998;7.614;2023-03-01T16:58:33;6.80;1.00
23671;DHT22;12012;51.998;7.614;2023-03-01T17:01:17;6.70;1.00
23671;DHT22;12012;51.998;7.614;2023-03-01T17:03:43;6.60;1.00
23671;DHT22;12012;51.998;7.614;2023-03-01T17:06:16;6.50;1.00
23671;DHT22;12012;51.998;7.614;2023-03-01T17:08:42;6.40;1.00
23671;DHT22;12012;51.998;7.614;2023-03-01T17:11:13;6.30;1.00
23671;DHT22;12012;51.998;7.614;2023-03-01T17:13:39;6.20;1.00
23671;DHT22;12012;51.998;7.614;2023-03-01T17:16:11;6.10;1.00
23671;DHT22;12012;51.998;7.614;2023-03-01T17:18:37;6.10;1.00
23671;DHT22;12012;51.998;7.614;2023-03-01T17:21:03;6.00;1.00
23671;DHT22;12012;51.998;7.614;2023-03-01T17:23:30;5.90;1.00
23671;DHT22;12012;51.998;7.614;2023-03-01T17:25:56;5.80;1.00
23671;DHT22;12012;51.998;7.614;2023-03-01T17:28:24;5.70;1.00
23671;DHT22;12012;51.998;7.614;2023-03-01T17:30:50;5.70;1.00
23671;DHT22;12012;51.998;7.614;2023-03-01T17:33:16;5.60;1.00
23671;DHT22;12012;51.998;7.614;2023-03-01T17:35:42;5.50;1.00